createdAt,value
2023-03-23T15:57:53.385Z,10.50
2023-03-23T16:00:22.493Z,10.40
2023-03-23T16:02:53.665Z,10.00
2023-03-23T16:05:21.092Z,10.30
2023-03-23T16:07:47.763Z,10.30
2023-03-23T16:10:16.923Z,14.00
2023-03-23T16:12:44.984Z,12.90
2023-03-23T16:15:12.861Z,11.60
2023-03-23T16:17:40.975Z,13.70
2023-03-23T16:20:11.197Z,11.30
2023-03-23T16:22:38.093Z,13.40
2023-03-23T16:25:09.577Z,13.20
2023-03-23T16:27:38.779Z,14.50
2023-03-23T16:30:14.393Z,10.20
2023-03-23T16:32:45.166Z,11.90
2023-03-23T16:35:12.689Z,12.30
2023-03-23T16:37:43.294Z,13.30
2023-03-23T16:40:10.693Z,11.70
2023-03-23T16:42:37.391Z,14.30
2023-03-23T16:45:04.433Z,14.10
2023-03-23T16:47:32.433Z,17.50
2023-03-23T16:50:06.099Z,15.90
2023-03-23T16:52:34.162Z,13.70
2023-03-23T16:55:14.772Z,15.80
2023-03-23T16:57:43.496Z,16.20
2023-03-23T17:00:14.738Z,16.00
2023-03-23T17:02:42.518Z,16.50
2023-03-23T17:05:10.527Z,17.60
2023-03-23T17:07:41.006Z,18.10
2023-03-23T17:10:09.023Z,21.00
2023-03-23T17:12:36.179Z,17.60
2023-03-23T17:15:03.469Z,16.50
2023-03-23T17:17:33.495Z,18.90
2023-03-23T17:20:00.473Z,20.50
2023-03-23T17:22:27.390Z,22.30
2023-03-23T17:24:56.831Z,19.40
2023-03-23T17:27:24.324Z,18.10
2023-03-23T17:29:51.149Z,22.30
2023-03-23T17:32:18.230Z,21.70
2023-03-23T17:34:45.374Z,21.60
2023-03-23T17:37:16.216Z,18.80
2023-03-23T17:39:44.482Z,20.90
2023-03-23T17:42:12.077Z,18.70
2023-03-23T17:44:39.358Z,20.80
2023-03-23T17:47:06.418Z,21.10
2023-03-23T17:49:35.126Z,19.90
2023-03-23T17:52:04.082Z,21.10
2023-03-23T17:54:30.758Z,20.00
2023-03-23T17:57:03.233Z,19.70
2023-03-23T17:59:30.316Z,20.00
2023-03-23T18:01:57.629Z,20.60
2023-03-23T18:04:26.402Z,24.20
2023-03-23T18:06:56.823Z,19.80
2023-03-23T18:09:23.904Z,22.00
2023-03-23T18:11:51.345Z,19.30
2023-03-23T18:14:18.189Z,21.70
2023-03-23T18:16:52.711Z,20.40
2023-03-23T18:19:19.605Z,25.60
2023-03-23T18:21:46.292Z,20.00
2023-03-23T18:24:13.491Z,18.60
2023-03-23T18:26:41.585Z,17.60
2023-03-23T18:29:08.163Z,22.30
2023-03-23T18:31:39.410Z,22.00
2023-03-23T18:34:06.301Z,21.30
2023-03-23T18:36:33.509Z,20.90
2023-03-23T18:39:00.220Z,22.00
2023-03-23T18:41:27.041Z,20.70
2023-03-23T18:43:57.433Z,21.80
2023-03-23T18:46:26.940Z,21.80
2023-03-23T18:48:55.058Z,24.50
2023-03-23T18:51:22.199Z,21.00
2023-03-23T18:53:48.945Z,20.10
2023-03-23T18:56:16.732Z,20.60
2023-03-23T18:58:44.811Z,21.70
2023-03-23T19:01:13.870Z,20.70
2023-03-23T19:03:41.160Z,22.60
2023-03-23T19:06:18.268Z,28.20
2023-03-23T19:08:46.332Z,28.20
2023-03-23T19:11:13.205Z,25.60
2023-03-23T19:13:53.753Z,23.20
2023-03-23T19:16:30.492Z,24.20
2023-03-23T19:19:01.187Z,22.90
2023-03-23T19:21:29.961Z,25.30
2023-03-23T19:23:59.163Z,25.00
2023-03-23T19:26:54.866Z,26.50
2023-03-23T19:31:52.717Z,26.50
2023-03-23T19:34:21.221Z,26.40
2023-03-23T19:36:53.699Z,26.20
2023-03-23T19:39:21.775Z,26.90
2023-03-23T19:41:49.862Z,24.40
2023-03-23T19:44:17.904Z,27.50
2023-03-23T19:46:44.862Z,26.50
2023-03-23T19:49:11.668Z,27.40
2023-03-23T19:51:39.763Z,25.40
2023-03-23T19:54:07.398Z,27.10
2023-03-23T19:56:35.541Z,27.00
2023-03-23T19:59:02.539Z,28.00
2023-03-23T20:01:29.203Z,26.90
2023-03-23T20:04:04.532Z,26.70
2023-03-23T20:06:33.214Z,23.20
2023-03-23T20:09:01.273Z,26.60
2023-03-23T20:11:28.607Z,27.00
2023-03-23T20:13:55.753Z,28.10
2023-03-23T20:16:22.669Z,24.80
2023-03-23T20:18:50.295Z,26.20
2023-03-23T20:21:22.514Z,27.10
2023-03-23T20:23:55.240Z,30.40
2023-03-23T20:26:29.323Z,28.90
2023-03-23T20:28:56.467Z,25.50
2023-03-23T20:31:28.003Z,24.70
2023-03-23T20:34:01.690Z,25.90
2023-03-23T20:36:33.967Z,30.10
2023-03-23T20:39:09.884Z,25.20
2023-03-23T20:41:37.886Z,25.90
2023-03-23T20:44:05.322Z,30.30
2023-03-23T20:46:34.202Z,25.80
2023-03-23T20:49:01.312Z,30.30
2023-03-23T20:51:29.766Z,29.40
2023-03-23T20:53:57.538Z,31.20
2023-03-23T20:56:25.023Z,29.60
2023-03-23T20:58:51.667Z,29.70
2023-03-23T21:01:20.972Z,29.90
2023-03-23T21:03:51.447Z,30.40
2023-03-23T21:06:18.708Z,26.00
2023-03-23T21:08:46.120Z,29.40
2023-03-23T21:11:20.278Z,28.20
2023-03-23T21:13:47.951Z,28.00
2023-03-23T21:16:15.338Z,26.70
2023-03-23T21:18:42.236Z,37.70
2023-03-23T21:21:14.258Z,26.80
2023-03-23T21:23:45.938Z,28.30
2023-03-23T21:26:16.017Z,25.90
2023-03-23T21:28:44.205Z,25.70
2023-03-23T21:31:11.808Z,24.20
2023-03-23T21:33:40.770Z,26.60
2023-03-23T21:36:08.558Z,24.20
2023-03-23T21:38:35.244Z,26.20
2023-03-23T21:41:09.575Z,25.60
2023-03-23T21:43:39.126Z,26.00
2023-03-23T21:46:13.488Z,27.20
2023-03-23T21:48:41.559Z,24.40
2023-03-23T21:51:13.596Z,24.00
2023-03-23T21:53:41.576Z,20.80
2023-03-23T21:56:09.626Z,23.30
2023-03-23T21:58:36.516Z,24.50
2023-03-23T22:01:04.667Z,23.50
2023-03-23T22:03:34.120Z,21.10
2023-03-23T22:06:11.096Z,24.30
2023-03-23T22:08:39.897Z,22.40
2023-03-23T22:11:37.940Z,20.70
2023-03-23T22:14:05.220Z,19.80
2023-03-23T22:16:32.676Z,23.80
2023-03-23T22:19:01.623Z,22.30
2023-03-23T22:21:28.580Z,25.20
2023-03-23T22:23:57.699Z,24.30
2023-03-23T22:26:26.628Z,21.20
2023-03-23T22:28:59.444Z,22.20
2023-03-23T22:31:29.596Z,19.40
2023-03-23T22:33:56.469Z,21.80
2023-03-23T22:36:24.092Z,22.30
2023-03-23T22:38:51.420Z,19.30
2023-03-23T22:41:24.441Z,20.50
2023-03-23T22:43:51.385Z,19.60
2023-03-23T22:46:18.290Z,20.50
2023-03-23T22:48:47.026Z,18.20
2023-03-23T22:51:15.165Z,19.20
2023-03-23T22:53:42.328Z,20.60
2023-03-23T22:56:09.835Z,17.00
2023-03-23T22:58:37.896Z,19.30
2023-03-23T23:01:12.409Z,19.60
2023-03-23T23:03:40.496Z,17.80
2023-03-23T23:06:07.900Z,18.30
2023-03-23T23:08:34.696Z,17.60
2023-03-23T23:11:01.932Z,18.90
2023-03-23T23:13:28.923Z,17.50
2023-03-23T23:15:57.815Z,18.90
2023-03-23T23:18:25.490Z,16.90
2023-03-23T23:20:56.701Z,17.30
2023-03-23T23:23:24.290Z,18.10
2023-03-23T23:25:51.749Z,16.20
2023-03-23T23:28:20.014Z,21.10
2023-03-23T23:30:47.652Z,19.80
2023-03-23T23:33:15.554Z,16.70
2023-03-23T23:35:42.727Z,18.10
2023-03-23T23:38:11.904Z,18.80
2023-03-23T23:40:40.463Z,19.20
2023-03-23T23:43:15.739Z,19.00
2023-03-23T23:45:43.364Z,18.70
2023-03-23T23:48:10.730Z,18.30
2023-03-23T23:50:38.350Z,19.10
2023-03-23T23:53:04.995Z,17.50
2023-03-23T23:55:33.615Z,16.90
2023-03-23T23:58:00.379Z,17.70
